sensor_id;sensor_type;location;lat;lon;timestamp;P1;durP1;ratioP1;P2;durP2;ratioP2
73170;SDS011;61381;50.118;19.962;2024-01-30T00:04:34;40.47;;;18.98;;
73170;SDS011;61381;50.118;19.962;2024-01-30T00:09:35;45.50;;;18.75;;
73170;SDS011;61381;50.118;19.962;2024-01-30T00:14:36;46.10;;;19.20;;
73170;SDS011;61381;50.118;19.962;2024-01-30T00:19:38;31.02;;;17.50;;
73170;SDS011;61381;50.118;19.962;2024-01-30T00:24:39;45.25;;;18.85;;
73170;SDS011;61381;50.118;19.962;2024-01-30T00:29:40;43.88;;;19.05;;
73170;SDS011;61381;50.118;19.962;2024-01-30T00:34:42;41.75;;;17.73;;
73170;SDS011;61381;50.118;19.962;2024-01-30T00:39:43;44.53;;;19.08;;
73170;SDS011;61381;50.118;19.962;2024-01-30T00:44:44;38.72;;;17.45;;
73170;SDS011;61381;50.118;19.962;2024-01-30T00:49:46;38.42;;;16.48;;
73170;SDS011;61381;50.118;19.962;2024-01-30T00:54:47;40.10;;;17.02;;
73170;SDS011;61381;50.118;19.962;2024-01-30T00:59:48;41.92;;;17.52;;
73170;SDS011;61381;50.118;19.962;2024-01-30T01:04:50;41.60;;;17.60;;
73170;SDS011;61381;50.118;19.962;2024-01-30T01:09:53;37.85;;;16.40;;
73170;SDS011;61381;50.118;19.962;2024-01-30T01:14:54;34.63;;;17.00;;
73170;SDS011;61381;50.118;19.962;2024-01-30T01:19:56;36.50;;;17.42;;
73170;SDS011;61381;50.118;19.962;2024-01-30T01:24:58;36.80;;;15.60;;
73170;SDS011;61381;50.118;19.962;2024-01-30T01:29:58;44.22;;;19.98;;
73170;SDS011;61381;50.118;19.962;2024-01-30T01:35:01;44.92;;;17.67;;
73170;SDS011;61381;50.118;19.962;2024-01-30T01:40:02;35.85;;;15.25;;
73170;SDS011;61381;50.118;19.962;2024-01-30T01:45:03;42.70;;;17.00;;
73170;SDS011;61381;50.118;19.962;2024-01-30T01:55:08;23.00;;;11.45;;
73170;SDS011;61381;50.118;19.962;2024-01-30T02:00:09;30.67;;;15.90;;
73170;SDS011;61381;50.118;19.962;2024-01-30T02:05:12;41.13;;;17.15;;
73170;SDS011;61381;50.118;19.962;2024-01-30T02:10:13;41.97;;;21.65;;
73170;SDS011;61381;50.118;19.962;2024-01-30T02:15:14;46.03;;;21.38;;
73170;SDS011;61381;50.118;19.962;2024-01-30T02:20:16;33.72;;;16.25;;
73170;SDS011;61381;50.118;19.962;2024-01-30T02:25:19;31.42;;;13.02;;
73170;SDS011;61381;50.118;19.962;2024-01-30T02:30:19;38.10;;;14.27;;
73170;SDS011;61381;50.118;19.962;2024-01-30T02:35:20;35.22;;;13.30;;
73170;SDS011;61381;50.118;19.962;2024-01-30T02:40:23;37.78;;;15.10;;
73170;SDS011;61381;50.118;19.962;2024-01-30T02:45:24;43.45;;;17.60;;
73170;SDS011;61381;50.118;19.962;2024-01-30T02:50:25;32.97;;;15.05;;
73170;SDS011;61381;50.118;19.962;2024-01-30T02:55:27;34.85;;;18.02;;
73170;SDS011;61381;50.118;19.962;2024-01-30T03:00:28;29.50;;;13.07;;
73170;SDS011;61381;50.118;19.962;2024-01-30T03:05:29;32.13;;;14.50;;
73170;SDS011;61381;50.118;19.962;2024-01-30T03:10:31;32.63;;;16.15;;
73170;SDS011;61381;50.118;19.962;2024-01-30T03:15:32;34.38;;;16.50;;
73170;SDS011;61381;50.118;19.962;2024-01-30T03:20:33;33.42;;;15.65;;
73170;SDS011;61381;50.118;19.962;2024-01-30T03:25:35;25.02;;;12.05;;
73170;SDS011;61381;50.118;19.962;2024-01-30T03:30:36;28.67;;;12.93;;
73170;SDS011;61381;50.118;19.962;2024-01-30T03:35:37;29.85;;;15.05;;
73170;SDS011;61381;50.118;19.962;2024-01-30T03:40:39;32.15;;;12.25;;
73170;SDS011;61381;50.118;19.962;2024-01-30T03:45:40;32.47;;;13.27;;
73170;SDS011;61381;50.118;19.962;2024-01-30T03:50:41;29.55;;;14.45;;
73170;SDS011;61381;50.118;19.962;2024-01-30T03:55:43;35.05;;;14.63;;
73170;SDS011;61381;50.118;19.962;2024-01-30T04:00:44;27.25;;;12.23;;
73170;SDS011;61381;50.118;19.962;2024-01-30T04:05:45;25.90;;;12.90;;
73170;SDS011;61381;50.118;19.962;2024-01-30T04:10:47;29.17;;;13.90;;
73170;SDS011;61381;50.118;19.962;2024-01-30T04:15:48;29.75;;;13.70;;
73170;SDS011;61381;50.118;19.962;2024-01-30T04:20:49;31.90;;;11.80;;
73170;SDS011;61381;50.118;19.962;2024-01-30T04:25:51;30.27;;;13.80;;
73170;SDS011;61381;50.118;19.962;2024-01-30T04:30:52;37.38;;;18.08;;
73170;SDS011;61381;50.118;19.962;2024-01-30T04:35:53;32.72;;;14.90;;
73170;SDS011;61381;50.118;19.962;2024-01-30T04:40:55;35.90;;;17.30;;
73170;SDS011;61381;50.118;19.962;2024-01-30T04:45:56;31.05;;;16.23;;
73170;SDS011;61381;50.118;19.962;2024-01-30T04:50:58;35.33;;;15.48;;
73170;SDS011;61381;50.118;19.962;2024-01-30T04:56:00;39.03;;;16.33;;
73170;SDS011;61381;50.118;19.962;2024-01-30T05:01:01;37.30;;;17.17;;
73170;SDS011;61381;50.118;19.962;2024-01-30T05:06:02;37.45;;;18.02;;
73170;SDS011;61381;50.118;19.962;2024-01-30T05:11:05;30.98;;;16.42;;
73170;SDS011;61381;50.118;19.962;2024-01-30T05:16:06;29.17;;;15.35;;
73170;SDS011;61381;50.118;19.962;2024-01-30T05:21:07;28.50;;;14.48;;
73170;SDS011;61381;50.118;19.962;2024-01-30T05:26:09;29.77;;;12.70;;
73170;SDS011;61381;50.118;19.962;2024-01-30T05:31:10;37.97;;;15.45;;
73170;SDS011;61381;50.118;19.962;2024-01-30T05:36:11;35.22;;;14.25;;
73170;SDS011;61381;50.118;19.962;2024-01-30T05:41:14;30.38;;;11.43;;
73170;SDS011;61381;50.118;19.962;2024-01-30T05:46:15;32.25;;;15.23;;
73170;SDS011;61381;50.118;19.962;2024-01-30T05:51:16;24.85;;;15.57;;
73170;SDS011;61381;50.118;19.962;2024-01-30T05:56:18;20.17;;;11.05;;
73170;SDS011;61381;50.118;19.962;2024-01-30T06:01:19;33.63;;;15.40;;
73170;SDS011;61381;50.118;19.962;2024-01-30T06:06:20;50.50;;;23.48;;
73170;SDS011;61381;50.118;19.962;2024-01-30T06:11:22;46.00;;;22.17;;
73170;SDS011;61381;50.118;19.962;2024-01-30T06:16:23;35.33;;;16.30;;
73170;SDS011;61381;50.118;19.962;2024-01-30T06:21:24;43.70;;;18.35;;
73170;SDS011;61381;50.118;19.962;2024-01-30T06:26:29;42.25;;;19.30;;
73170;SDS011;61381;50.118;19.962;2024-01-30T06:31:30;30.20;;;14.60;;
73170;SDS011;61381;50.118;19.962;2024-01-30T06:36:31;39.97;;;19.27;;
73170;SDS011;61381;50.118;19.962;2024-01-30T06:41:33;38.10;;;15.85;;
73170;SDS011;61381;50.118;19.962;2024-01-30T06:46:34;43.72;;;19.33;;
73170;SDS011;61381;50.118;19.962;2024-01-30T06:51:35;39.17;;;18.33;;
73170;SDS011;61381;50.118;19.962;2024-01-30T06:56:38;59.78;;;23.00;;
73170;SDS011;61381;50.118;19.962;2024-01-30T07:01:39;85.47;;;31.90;;
73170;SDS011;61381;50.118;19.962;2024-01-30T07:06:40;37.92;;;17.02;;
73170;SDS011;61381;50.118;19.962;2024-01-30T07:11:42;43.00;;;18.77;;
73170;SDS011;61381;50.118;19.962;2024-01-30T07:16:43;53.33;;;20.77;;
73170;SDS011;61381;50.118;19.962;2024-01-30T07:21:44;23.20;;;11.70;;
73170;SDS011;61381;50.118;19.962;2024-01-30T07:26:46;43.30;;;20.70;;
73170;SDS011;61381;50.118;19.962;2024-01-30T07:31:47;47.40;;;20.48;;
73170;SDS011;61381;50.118;19.962;2024-01-30T07:36:48;50.58;;;22.23;;
73170;SDS011;61381;50.118;19.962;2024-01-30T07:41:50;49.20;;;21.02;;
73170;SDS011;61381;50.118;19.962;2024-01-30T07:46:51;50.03;;;20.90;;
73170;SDS011;61381;50.118;19.962;2024-01-30T07:51:52;57.75;;;27.00;;
73170;SDS011;61381;50.118;19.962;2024-01-30T07:56:54;48.85;;;20.35;;
73170;SDS011;61381;50.118;19.962;2024-01-30T08:01:55;52.60;;;23.48;;
73170;SDS011;61381;50.118;19.962;2024-01-30T08:06:56;60.45;;;26.50;;
73170;SDS011;61381;50.118;19.962;2024-01-30T08:11:58;40.90;;;23.15;;
73170;SDS011;61381;50.118;19.962;2024-01-30T08:16:59;43.47;;;22.13;;
73170;SDS011;61381;50.118;19.962;2024-01-30T08:22:00;48.97;;;21.80;;
73170;SDS011;61381;50.118;19.962;2024-01-30T08:27:03;52.05;;;23.85;;
73170;SDS011;61381;50.118;19.962;2024-01-30T08:32:05;49.65;;;23.50;;
73170;SDS011;61381;50.118;19.962;2024-01-30T08:37:06;43.47;;;21.33;;
73170;SDS011;61381;50.118;19.962;2024-01-30T08:42:09;56.42;;;23.70;;
73170;SDS011;61381;50.118;19.962;2024-01-30T08:47:09;39.85;;;19.58;;
73170;SDS011;61381;50.118;19.962;2024-01-30T08:52:10;48.10;;;22.58;;
73170;SDS011;61381;50.118;19.962;2024-01-30T08:57:13;38.97;;;18.90;;
73170;SDS011;61381;50.118;19.962;2024-01-30T09:02:14;41.08;;;18.45;;
73170;SDS011;61381;50.118;19.962;2024-01-30T09:07:15;34.45;;;17.10;;
73170;SDS011;61381;50.118;19.962;2024-01-30T09:12:17;38.67;;;16.85;;
73170;SDS011;61381;50.118;19.962;2024-01-30T09:17:18;37.63;;;16.48;;
73170;SDS011;61381;50.118;19.962;2024-01-30T09:22:20;40.58;;;16.67;;
73170;SDS011;61381;50.118;19.962;2024-01-30T09:27:22;39.15;;;17.33;;
73170;SDS011;61381;50.118;19.962;2024-01-30T09:32:23;44.70;;;18.25;;
73170;SDS011;61381;50.118;19.962;2024-01-30T09:42:27;34.83;;;14.48;;
73170;SDS011;61381;50.118;19.962;2024-01-30T09:47:34;20.63;;;9.30;;
73170;SDS011;61381;50.118;19.962;2024-01-30T09:52:40;23.15;;;10.95;;
73170;SDS011;61381;50.118;19.962;2024-01-30T09:57:44;22.13;;;9.55;;
73170;SDS011;61381;50.118;19.962;2024-01-30T10:02:45;17.83;;;8.85;;
73170;SDS011;61381;50.118;19.962;2024-01-30T10:07:50;21.70;;;9.63;;
73170;SDS011;61381;50.118;19.962;2024-01-30T10:12:54;24.65;;;10.98;;
73170;SDS011;61381;50.118;19.962;2024-01-30T10:17:55;23.15;;;11.05;;
73170;SDS011;61381;50.118;19.962;2024-01-30T10:27:58;19.17;;;9.00;;
73170;SDS011;61381;50.118;19.962;2024-01-30T10:32:59;18.45;;;8.73;;
73170;SDS011;61381;50.118;19.962;2024-01-30T10:43:03;15.93;;;8.25;;
73170;SDS011;61381;50.118;19.962;2024-01-30T10:48:05;21.38;;;9.70;;
73170;SDS011;61381;50.118;19.962;2024-01-30T10:53:10;23.80;;;10.07;;
73170;SDS011;61381;50.118;19.962;2024-01-30T10:58:12;22.98;;;10.57;;
73170;SDS011;61381;50.118;19.962;2024-01-30T11:03:14;22.20;;;10.65;;
73170;SDS011;61381;50.118;19.962;2024-01-30T11:08:22;21.83;;;11.60;;
73170;SDS011;61381;50.118;19.962;2024-01-30T11:13:27;24.35;;;11.30;;
73170;SDS011;61381;50.118;19.962;2024-01-30T11:18:29;25.67;;;10.25;;
73170;SDS011;61381;50.118;19.962;2024-01-30T11:23:32;23.48;;;10.55;;
73170;SDS011;61381;50.118;19.962;2024-01-30T11:28:35;21.02;;;11.43;;
73170;SDS011;61381;50.118;19.962;2024-01-30T11:33:38;26.60;;;12.02;;
73170;SDS011;61381;50.118;19.962;2024-01-30T11:38:39;23.58;;;10.48;;
73170;SDS011;61381;50.118;19.962;2024-01-30T11:43:41;24.63;;;10.88;;
73170;SDS011;61381;50.118;19.962;2024-01-30T11:48:48;17.58;;;8.43;;
73170;SDS011;61381;50.118;19.962;2024-01-30T11:53:50;15.30;;;7.05;;
73170;SDS011;61381;50.118;19.962;2024-01-30T11:58:52;18.45;;;8.60;;
73170;SDS011;61381;50.118;19.962;2024-01-30T12:03:53;14.45;;;6.93;;
73170;SDS011;61381;50.118;19.962;2024-01-30T12:08:57;18.20;;;7.90;;
73170;SDS011;61381;50.118;19.962;2024-01-30T12:14:00;18.30;;;8.68;;
73170;SDS011;61381;50.118;19.962;2024-01-30T12:19:01;15.13;;;7.32;;
73170;SDS011;61381;50.118;19.962;2024-01-30T12:24:02;19.38;;;7.50;;
73170;SDS011;61381;50.118;19.962;2024-01-30T12:29:04;23.40;;;9.55;;
73170;SDS011;61381;50.118;19.962;2024-01-30T12:34:05;17.25;;;7.85;;
73170;SDS011;61381;50.118;19.962;2024-01-30T12:39:06;18.83;;;8.35;;
73170;SDS011;61381;50.118;19.962;2024-01-30T12:44:12;17.90;;;8.70;;
73170;SDS011;61381;50.118;19.962;2024-01-30T12:49:14;16.50;;;8.05;;
73170;SDS011;61381;50.118;19.962;2024-01-30T12:54:15;17.67;;;6.05;;
73170;SDS011;61381;50.118;19.962;2024-01-30T12:59:17;16.17;;;8.13;;
73170;SDS011;61381;50.118;19.962;2024-01-30T13:04:18;19.13;;;8.55;;
73170;SDS011;61381;50.118;19.962;2024-01-30T13:09:19;16.15;;;7.80;;
73170;SDS011;61381;50.118;19.962;2024-01-30T13:14:22;15.38;;;7.43;;
73170;SDS011;61381;50.118;19.962;2024-01-30T13:19:23;15.80;;;7.88;;
73170;SDS011;61381;50.118;19.962;2024-01-30T13:24:24;16.20;;;7.78;;
73170;SDS011;61381;50.118;19.962;2024-01-30T13:29:26;21.45;;;9.10;;
73170;SDS011;61381;50.118;19.962;2024-01-30T13:34:27;18.92;;;9.02;;
73170;SDS011;61381;50.118;19.962;2024-01-30T13:39:27;13.77;;;7.45;;
73170;SDS011;61381;50.118;19.962;2024-01-30T13:44:30;17.98;;;8.63;;
73170;SDS011;61381;50.118;19.962;2024-01-30T13:49:31;14.95;;;7.80;;
73170;SDS011;61381;50.118;19.962;2024-01-30T13:54:31;19.05;;;8.43;;
73170;SDS011;61381;50.118;19.962;2024-01-30T13:59:34;16.20;;;7.95;;
73170;SDS011;61381;50.118;19.962;2024-01-30T14:04:35;16.02;;;8.90;;
73170;SDS011;61381;50.118;19.962;2024-01-30T14:09:36;18.35;;;7.60;;
73170;SDS011;61381;50.118;19.962;2024-01-30T14:14:38;19.15;;;8.27;;
73170;SDS011;61381;50.118;19.962;2024-01-30T14:19:39;16.52;;;8.38;;
73170;SDS011;61381;50.118;19.962;2024-01-30T14:24:40;17.75;;;7.65;;
73170;SDS011;61381;50.118;19.962;2024-01-30T14:29:45;14.63;;;7.40;;
73170;SDS011;61381;50.118;19.962;2024-01-30T14:34:46;17.70;;;7.78;;
73170;SDS011;61381;50.118;19.962;2024-01-30T14:39:47;17.17;;;8.80;;
73170;SDS011;61381;50.118;19.962;2024-01-30T14:44:49;18.13;;;8.45;;
73170;SDS011;61381;50.118;19.962;2024-01-30T14:49:50;19.50;;;8.73;;
73170;SDS011;61381;50.118;19.962;2024-01-30T14:54:51;17.65;;;8.50;;
73170;SDS011;61381;50.118;19.962;2024-01-30T14:59:54;19.40;;;8.45;;
73170;SDS011;61381;50.118;19.962;2024-01-30T15:04:55;20.05;;;7.93;;
73170;SDS011;61381;50.118;19.962;2024-01-30T15:09:55;17.20;;;8.00;;
73170;SDS011;61381;50.118;19.962;2024-01-30T15:14:58;22.08;;;8.48;;
73170;SDS011;61381;50.118;19.962;2024-01-30T15:19:59;21.75;;;9.82;;
73170;SDS011;61381;50.118;19.962;2024-01-30T15:25:00;55.97;;;22.63;;
73170;SDS011;61381;50.118;19.962;2024-01-30T15:30:02;61.33;;;27.92;;
73170;SDS011;61381;50.118;19.962;2024-01-30T15:35:04;56.42;;;25.80;;
73170;SDS011;61381;50.118;19.962;2024-01-30T15:40:09;56.88;;;22.33;;
73170;SDS011;61381;50.118;19.962;2024-01-30T15:45:13;48.40;;;23.42;;
73170;SDS011;61381;50.118;19.962;2024-01-30T15:50:14;57.13;;;24.25;;
73170;SDS011;61381;50.118;19.962;2024-01-30T15:55:15;58.58;;;24.60;;
73170;SDS011;61381;50.118;19.962;2024-01-30T16:00:20;52.83;;;23.33;;
73170;SDS011;61381;50.118;19.962;2024-01-30T16:05:21;54.95;;;23.58;;
73170;SDS011;61381;50.118;19.962;2024-01-30T16:10:24;59.70;;;26.45;;
73170;SDS011;61381;50.118;19.962;2024-01-30T16:15:27;52.20;;;21.48;;
73170;SDS011;61381;50.118;19.962;2024-01-30T16:20:28;54.58;;;23.23;;
73170;SDS011;61381;50.118;19.962;2024-01-30T16:25:29;50.95;;;19.75;;
73170;SDS011;61381;50.118;19.962;2024-01-30T16:30:31;50.65;;;21.42;;
73170;SDS011;61381;50.118;19.962;2024-01-30T16:35:32;46.53;;;22.15;;
73170;SDS011;61381;50.118;19.962;2024-01-30T16:40:33;57.78;;;22.80;;
73170;SDS011;61381;50.118;19.962;2024-01-30T16:45:35;64.95;;;25.25;;
73170;SDS011;61381;50.118;19.962;2024-01-30T16:50:36;61.75;;;25.33;;
73170;SDS011;61381;50.118;19.962;2024-01-30T16:55:37;57.67;;;22.17;;
73170;SDS011;61381;50.118;19.962;2024-01-30T17:00:39;62.92;;;24.75;;
73170;SDS011;61381;50.118;19.962;2024-01-30T17:05:40;63.22;;;24.48;;
73170;SDS011;61381;50.118;19.962;2024-01-30T17:10:41;60.25;;;23.15;;
73170;SDS011;61381;50.118;19.962;2024-01-30T17:15:43;58.30;;;23.48;;
73170;SDS011;61381;50.118;19.962;2024-01-30T17:20:44;71.45;;;29.25;;
73170;SDS011;61381;50.118;19.962;2024-01-30T17:25:45;64.05;;;27.33;;
73170;SDS011;61381;50.118;19.962;2024-01-30T17:30:47;54.13;;;24.83;;
73170;SDS011;61381;50.118;19.962;2024-01-30T17:35:48;54.95;;;24.75;;
73170;SDS011;61381;50.118;19.962;2024-01-30T17:40:49;65.55;;;24.38;;
73170;SDS011;61381;50.118;19.962;2024-01-30T17:45:51;66.43;;;26.85;;
73170;SDS011;61381;50.118;19.962;2024-01-30T17:50:52;62.28;;;26.08;;
73170;SDS011;61381;50.118;19.962;2024-01-30T17:55:53;132.85;;;45.83;;
73170;SDS011;61381;50.118;19.962;2024-01-30T18:00:55;77.75;;;30.40;;
73170;SDS011;61381;50.118;19.962;2024-01-30T18:05:56;53.30;;;25.60;;
73170;SDS011;61381;50.118;19.962;2024-01-30T18:10:57;59.85;;;24.92;;
73170;SDS011;61381;50.118;19.962;2024-01-30T18:15:59;62.03;;;26.13;;
73170;SDS011;61381;50.118;19.962;2024-01-30T18:21:00;56.15;;;22.40;;
73170;SDS011;61381;50.118;19.962;2024-01-30T18:26:01;58.83;;;27.25;;
73170;SDS011;61381;50.118;19.962;2024-01-30T18:31:04;39.10;;;19.73;;
73170;SDS011;61381;50.118;19.962;2024-01-30T18:36:05;48.70;;;21.90;;
73170;SDS011;61381;50.118;19.962;2024-01-30T18:41:06;49.45;;;23.30;;
73170;SDS011;61381;50.118;19.962;2024-01-30T18:46:09;53.20;;;22.67;;
73170;SDS011;61381;50.118;19.962;2024-01-30T18:51:13;49.47;;;21.95;;
73170;SDS011;61381;50.118;19.962;2024-01-30T18:56:14;51.00;;;22.58;;
73170;SDS011;61381;50.118;19.962;2024-01-30T19:01:17;51.70;;;18.70;;
73170;SDS011;61381;50.118;19.962;2024-01-30T19:06:18;41.25;;;19.83;;
73170;SDS011;61381;50.118;19.962;2024-01-30T19:11:19;44.70;;;20.30;;
73170;SDS011;61381;50.118;19.962;2024-01-30T19:16:21;49.22;;;20.15;;
73170;SDS011;61381;50.118;19.962;2024-01-30T19:21:22;49.03;;;20.02;;
73170;SDS011;61381;50.118;19.962;2024-01-30T19:26:23;45.40;;;20.98;;
73170;SDS011;61381;50.118;19.962;2024-01-30T19:31:25;54.13;;;20.60;;
73170;SDS011;61381;50.118;19.962;2024-01-30T19:36:26;44.75;;;19.42;;
73170;SDS011;61381;50.118;19.962;2024-01-30T19:41:27;42.13;;;19.50;;
73170;SDS011;61381;50.118;19.962;2024-01-30T19:46:30;46.60;;;20.90;;
73170;SDS011;61381;50.118;19.962;2024-01-30T19:51:31;52.50;;;20.83;;
73170;SDS011;61381;50.118;19.962;2024-01-30T19:56:32;56.15;;;24.90;;
73170;SDS011;61381;50.118;19.962;2024-01-30T20:01:34;59.83;;;25.67;;
73170;SDS011;61381;50.118;19.962;2024-01-30T20:06:35;47.25;;;23.77;;
73170;SDS011;61381;50.118;19.962;2024-01-30T20:11:36;58.15;;;24.55;;
73170;SDS011;61381;50.118;19.962;2024-01-30T20:16:39;53.28;;;26.98;;
73170;SDS011;61381;50.118;19.962;2024-01-30T20:21:40;45.83;;;22.35;;
73170;SDS011;61381;50.118;19.962;2024-01-30T20:26:41;60.30;;;28.10;;
73170;SDS011;61381;50.118;19.962;2024-01-30T20:31:44;46.03;;;18.02;;
73170;SDS011;61381;50.118;19.962;2024-01-30T20:36:45;38.33;;;18.15;;
73170;SDS011;61381;50.118;19.962;2024-01-30T20:41:46;40.85;;;18.08;;
73170;SDS011;61381;50.118;19.962;2024-01-30T20:46:48;50.67;;;20.15;;
73170;SDS011;61381;50.118;19.962;2024-01-30T20:51:49;50.53;;;22.23;;
73170;SDS011;61381;50.118;19.962;2024-01-30T20:56:50;38.83;;;16.23;;
73170;SDS011;61381;50.118;19.962;2024-01-30T21:01:52;35.67;;;15.77;;
73170;SDS011;61381;50.118;19.962;2024-01-30T21:06:53;38.97;;;14.93;;
73170;SDS011;61381;50.118;19.962;2024-01-30T21:11:54;25.55;;;11.57;;
73170;SDS011;61381;50.118;19.962;2024-01-30T21:16:57;25.15;;;11.55;;
73170;SDS011;61381;50.118;19.962;2024-01-30T21:21:58;24.60;;;11.15;;
73170;SDS011;61381;50.118;19.962;2024-01-30T21:26:59;20.08;;;9.00;;
73170;SDS011;61381;50.118;19.962;2024-01-30T21:32:01;30.15;;;10.30;;
73170;SDS011;61381;50.118;19.962;2024-01-30T21:37:05;30.48;;;10.68;;
73170;SDS011;61381;50.118;19.962;2024-01-30T21:42:09;28.63;;;10.93;;
73170;SDS011;61381;50.118;19.962;2024-01-30T21:47:11;24.63;;;10.23;;
73170;SDS011;61381;50.118;19.962;2024-01-30T21:52:12;22.83;;;9.77;;
73170;SDS011;61381;50.118;19.962;2024-01-30T21:57:13;26.75;;;11.73;;
73170;SDS011;61381;50.118;19.962;2024-01-30T22:02:16;31.92;;;12.85;;
73170;SDS011;61381;50.118;19.962;2024-01-30T22:07:16;33.60;;;13.70;;
73170;SDS011;61381;50.118;19.962;2024-01-30T22:12:17;37.97;;;14.25;;
73170;SDS011;61381;50.118;19.962;2024-01-30T22:17:20;37.40;;;13.73;;
73170;SDS011;61381;50.118;19.962;2024-01-30T22:22:20;36.25;;;14.80;;
73170;SDS011;61381;50.118;19.962;2024-01-30T22:27:21;33.47;;;13.88;;
73170;SDS011;61381;50.118;19.962;2024-01-30T22:32:24;39.53;;;15.43;;
73170;SDS011;61381;50.118;19.962;2024-01-30T22:37:24;35.65;;;14.18;;
73170;SDS011;61381;50.118;19.962;2024-01-30T22:42:25;36.67;;;15.60;;
73170;SDS011;61381;50.118;19.962;2024-01-30T22:47:29;33.03;;;14.43;;
73170;SDS011;61381;50.118;19.962;2024-01-30T22:52:30;32.15;;;15.07;;
73170;SDS011;61381;50.118;19.962;2024-01-30T22:57:31;36.85;;;15.18;;
73170;SDS011;61381;50.118;19.962;2024-01-30T23:02:33;31.65;;;13.75;;
73170;SDS011;61381;50.118;19.962;2024-01-30T23:07:34;30.13;;;13.18;;
73170;SDS011;61381;50.118;19.962;2024-01-30T23:12:35;36.75;;;15.77;;
73170;SDS011;61381;50.118;19.962;2024-01-30T23:17:37;33.20;;;16.02;;
73170;SDS011;61381;50.118;19.962;2024-01-30T23:22:39;32.90;;;13.35;;
73170;SDS011;61381;50.118;19.962;2024-01-30T23:27:40;39.53;;;17.30;;
73170;SDS011;61381;50.118;19.962;2024-01-30T23:32:42;38.30;;;16.20;;
73170;SDS011;61381;50.118;19.962;2024-01-30T23:37:43;31.70;;;15.60;;
73170;SDS011;61381;50.118;19.962;2024-01-30T23:42:44;40.25;;;17.02;;
73170;SDS011;61381;50.118;19.962;2024-01-30T23:47:46;38.60;;;17.38;;
73170;SDS011;61381;50.118;19.962;2024-01-30T23:52:47;39.22;;;16.60;;
73170;SDS011;61381;50.118;19.962;2024-01-30T23:57:48;44.78;;;18.60;;
